createdAt,value
2018-11-11T00:00:20.284Z,12.40
2018-11-11T00:02:50.563Z,12.30
2018-11-11T00:05:20.373Z,12.40
2018-11-11T00:07:49.545Z,12.40
2018-11-11T00:10:18.746Z,12.40
2018-11-11T00:12:47.914Z,12.40
2018-11-11T00:15:18.020Z,12.50
2018-11-11T00:17:47.914Z,12.50
2018-11-11T00:20:17.444Z,12.40
2018-11-11T00:22:46.624Z,12.50
2018-11-11T00:25:15.789Z,12.50
2018-11-11T00:27:44.931Z,12.40
2018-11-11T00:30:16.200Z,12.50
2018-11-11T00:35:14.134Z,12.20
2018-11-11T00:40:13.434Z,12.30
2018-11-11T00:42:42.655Z,12.30
2018-11-11T00:45:12.986Z,12.30
2018-11-11T00:47:42.199Z,12.40
2018-11-11T00:50:11.979Z,12.30
2018-11-11T01:00:12.638Z,12.30
2018-11-11T01:02:42.680Z,12.20
2018-11-11T01:05:12.305Z,12.20
2018-11-11T01:10:12.730Z,12.20
2018-11-11T01:12:42.661Z,12.30
2018-11-11T01:15:13.283Z,12.20
2018-11-11T01:17:42.502Z,12.10
2018-11-11T01:20:12.904Z,12.00
2018-11-11T01:25:12.943Z,12.20
2018-11-11T01:30:12.628Z,12.30
2018-11-11T01:35:14.567Z,12.30
2018-11-11T01:40:13.979Z,12.40
2018-11-11T01:42:43.859Z,12.30
2018-11-11T01:45:17.172Z,12.30
2018-11-11T01:47:46.967Z,12.40
2018-11-11T01:50:16.251Z,12.40
2018-11-11T01:55:14.458Z,12.40
2018-11-11T01:57:44.025Z,12.40
2018-11-11T02:00:18.195Z,12.30
2018-11-11T02:05:16.978Z,12.30
2018-11-11T02:10:15.551Z,12.20
2018-11-11T02:15:15.323Z,12.30
2018-11-11T02:17:44.506Z,12.30
2018-11-11T02:20:14.942Z,12.40
2018-11-11T02:22:45.594Z,12.40
2018-11-11T02:25:14.706Z,12.50
2018-11-11T02:30:14.526Z,12.30
2018-11-11T02:32:44.136Z,12.30
2018-11-11T02:35:13.434Z,12.30
2018-11-11T02:37:43.098Z,12.40
2018-11-11T02:40:13.260Z,12.40
2018-11-11T02:42:42.764Z,12.20
2018-11-11T02:45:13.178Z,12.10
2018-11-11T02:50:14.349Z,12.00
2018-11-11T02:52:44.055Z,12.00
2018-11-11T02:55:13.974Z,11.90
2018-11-11T03:00:18.158Z,12.00
2018-11-11T03:02:47.821Z,11.90
2018-11-11T03:10:16.023Z,12.00
2018-11-11T03:12:45.947Z,12.00
2018-11-11T03:15:15.741Z,12.00
2018-11-11T03:17:44.897Z,12.00
2018-11-11T03:20:14.864Z,12.10
2018-11-11T03:22:44.007Z,12.10
2018-11-11T03:25:14.277Z,12.10
2018-11-11T03:30:13.693Z,12.20
2018-11-11T03:32:42.880Z,12.20
2018-11-11T03:37:42.250Z,12.10
2018-11-11T03:40:14.545Z,12.10
2018-11-11T03:42:44.006Z,12.10
2018-11-11T03:45:15.372Z,12.20
2018-11-11T03:47:45.447Z,12.20
2018-11-11T03:52:43.499Z,12.30
2018-11-11T03:55:12.838Z,12.40
2018-11-11T04:00:13.439Z,12.40
2018-11-11T04:02:42.569Z,12.40
2018-11-11T04:05:13.032Z,12.50
2018-11-11T04:07:42.250Z,12.50
2018-11-11T04:10:13.746Z,12.50
2018-11-11T04:12:43.038Z,12.40
2018-11-11T04:15:13.543Z,12.40
2018-11-11T04:20:16.843Z,12.30
2018-11-11T04:22:45.985Z,12.40
2018-11-11T04:25:15.809Z,12.40
2018-11-11T04:27:44.958Z,12.40
2018-11-11T04:32:44.042Z,12.20
2018-11-11T04:42:40.362Z,12.20
2018-11-11T04:45:11.847Z,12.10
2018-11-11T04:50:11.679Z,12.00
2018-11-11T04:52:40.913Z,11.90
2018-11-11T04:55:10.705Z,12.00
2018-11-11T05:00:10.523Z,12.20
2018-11-11T05:05:09.538Z,12.10
2018-11-11T05:07:38.742Z,12.00
2018-11-11T05:10:08.097Z,12.10
2018-11-11T05:12:37.460Z,12.10
2018-11-11T05:15:07.923Z,12.10
2018-11-11T05:20:06.800Z,12.20
2018-11-11T05:22:36.029Z,12.20
2018-11-11T05:25:07.245Z,12.20
2018-11-11T05:30:06.069Z,12.20
2018-11-11T05:32:35.218Z,12.30
2018-11-11T05:37:33.102Z,12.20
2018-11-11T05:40:02.374Z,12.20
2018-11-11T05:45:00.367Z,12.20
2018-11-11T05:49:58.399Z,12.20
2018-11-11T05:52:27.522Z,12.30
2018-11-11T05:54:56.757Z,12.30
2018-11-11T06:09:49.073Z,12.40
2018-11-11T06:12:18.390Z,12.40
2018-11-11T06:14:47.730Z,12.40
2018-11-11T06:17:17.049Z,12.40
2018-11-11T06:22:15.249Z,12.40
2018-11-11T06:32:12.085Z,12.40
2018-11-11T06:39:39.969Z,12.50
2018-11-11T06:47:06.917Z,12.60
2018-11-11T06:59:31.582Z,12.70
2018-11-11T07:04:29.763Z,12.70
2018-11-11T07:09:27.901Z,12.60
2018-11-11T07:21:52.521Z,12.80
2018-11-11T07:26:50.606Z,12.90
2018-11-11T07:31:48.977Z,12.80
2018-11-11T07:36:47.474Z,12.90
2018-11-11T07:41:45.571Z,13.00
2018-11-11T07:54:10.667Z,13.10
2018-11-11T08:36:28.921Z,13.40
2018-11-11T08:48:53.639Z,13.50
2018-11-11T08:58:49.952Z,13.50
2018-11-11T09:21:11.911Z,12.20
2018-11-11T09:26:10.048Z,12.40
2018-11-11T09:33:37.068Z,12.70
2018-11-11T09:43:33.319Z,12.50
2018-11-11T09:55:57.997Z,12.70
2018-11-11T10:06:19.316Z,13.60
2018-11-11T10:11:31.985Z,13.60
2018-11-11T10:21:22.153Z,13.30
2018-11-11T10:26:37.544Z,13.40
2018-11-11T11:04:39.558Z,11.00
2018-11-11T11:09:37.714Z,11.30
2018-11-11T11:27:00.048Z,11.50
2018-11-11T11:29:29.340Z,11.80
2018-11-11T11:34:27.530Z,12.60
2018-11-11T11:41:54.677Z,12.50
2018-11-11T11:54:20.361Z,12.30
2018-11-11T11:59:18.592Z,12.50
2018-11-11T12:04:16.759Z,12.50
2018-11-11T12:11:43.933Z,12.90
2018-11-11T12:16:43.229Z,12.90
2018-11-11T12:24:10.621Z,14.10
2018-11-11T13:03:55.041Z,13.10
2018-11-11T13:08:53.542Z,13.10
2018-11-11T13:18:49.331Z,12.60
2018-11-11T13:23:48.752Z,12.40
2018-11-11T13:26:18.101Z,12.40
2018-11-11T13:43:40.583Z,12.60
2018-11-11T13:51:08.901Z,12.20
2018-11-11T14:06:02.932Z,11.80
2018-11-11T14:11:01.091Z,11.70
2018-11-11T14:13:30.373Z,11.60
2018-11-11T14:15:59.738Z,11.60
2018-11-11T14:18:29.086Z,11.70
2018-11-11T14:25:56.137Z,12.50
2018-11-11T14:30:54.572Z,12.20
2018-11-11T14:33:23.885Z,12.20
2018-11-11T14:38:22.092Z,12.20
2018-11-11T15:03:14.263Z,10.10
2018-11-11T15:30:38.189Z,12.10
2018-11-11T15:48:04.565Z,12.30
2018-11-11T16:05:34.564Z,12.10
2018-11-11T16:20:33.545Z,12.20
2018-11-11T16:35:32.073Z,11.80
2018-11-11T16:38:01.877Z,11.90
2018-11-11T16:43:03.297Z,12.00
2018-11-11T17:05:34.907Z,11.90
2018-11-11T17:10:34.632Z,11.80
2018-11-11T17:20:34.037Z,11.80
2018-11-11T17:25:33.955Z,12.00
2018-11-11T17:42:59.891Z,11.80
2018-11-11T17:50:30.061Z,11.90
2018-11-11T17:55:29.709Z,12.00
2018-11-11T18:07:58.567Z,11.80
2018-11-11T18:50:22.733Z,11.90
2018-11-11T18:57:49.926Z,11.60
2018-11-11T19:00:23.448Z,11.70
2018-11-11T19:25:21.646Z,11.30
2018-11-11T19:37:51.421Z,11.60
2018-11-11T19:40:22.041Z,11.50
2018-11-11T19:50:21.837Z,11.80
2018-11-11T19:55:21.343Z,12.10
2018-11-11T19:57:50.721Z,12.10
2018-11-11T20:02:52.411Z,12.20
2018-11-11T20:05:22.397Z,12.30
2018-11-11T20:12:51.461Z,12.30
2018-11-11T20:15:22.338Z,12.30
2018-11-11T20:22:51.845Z,12.20
2018-11-11T20:25:21.785Z,12.20
2018-11-11T20:45:22.687Z,12.20
2018-11-11T20:47:52.398Z,12.20
2018-11-11T20:50:24.077Z,12.30
2018-11-11T21:20:21.767Z,12.50
2018-11-11T21:30:21.421Z,12.60
2018-11-11T21:32:51.050Z,12.50
2018-11-11T21:47:51.953Z,12.70
2018-11-11T21:55:21.864Z,12.90
2018-11-11T22:07:46.870Z,12.90
2018-11-11T22:12:45.093Z,12.90
2018-11-11T22:32:37.727Z,12.90
2018-11-11T22:37:36.421Z,12.80
2018-11-11T22:40:07.583Z,12.80
2018-11-11T22:52:33.570Z,12.80
2018-11-11T22:55:02.874Z,12.80
2018-11-11T22:57:32.213Z,12.90
2018-11-11T23:00:01.590Z,12.80
2018-11-11T23:07:28.561Z,12.90
2018-11-11T23:12:26.805Z,12.90
2018-11-11T23:14:56.121Z,12.90
2018-11-11T23:19:54.208Z,12.80
2018-11-11T23:24:53.258Z,12.90
2018-11-11T23:32:21.191Z,12.90
2018-11-11T23:42:17.946Z,12.70
2018-11-11T23:49:44.899Z,12.70
2018-11-11T23:52:14.578Z,12.70
